Time;durP1;ratioP1;P1;durP2;ratioP2;P2;SDS_P1;SDS_P2;PMS_P1;PMS_P2;Temp;Humidity;BMP_temperature;BMP_pressure;BME280_temperature;BME280_humidity;BME280_pressure;Samples;Min_cycle;Max_cycle;Signal;HPM_P1;HPM_P2
2023/10/10 00:02:36;0.00;0.00;0.62;0.00;0.00;0.62;2.40;1.50;;;26.00;34.30;;;;;;2276985;60;20408;-68
2023/10/10 00:05:36;0.00;0.00;0.62;0.00;0.00;0.62;2.50;1.33;;;26.00;34.30;;;;;;2277014;60;20423;-66
2023/10/10 00:08:27;0.00;0.00;0.62;0.00;0.00;0.62;1.90;1.20;;;26.00;34.30;;;;;;2276475;60;20366;-66
2023/10/10 00:11:14;0.00;0.00;0.62;0.00;0.00;0.62;2.93;1.80;;;26.00;34.30;;;;;;2277005;60;20448;-67
2023/10/10 00:14:05;0.00;0.00;0.62;0.00;0.00;0.62;2.90;1.67;;;26.00;34.30;;;;;;2276807;60;20411;-65
2023/10/10 00:16:54;0.00;0.00;0.62;0.00;0.00;0.62;2.07;1.50;;;26.00;34.20;;;;;;2276947;60;20365;-67
2023/10/10 00:19:45;0.00;0.00;0.62;0.00;0.00;0.62;2.37;1.43;;;26.00;34.20;;;;;;2276327;60;20362;-67
2023/10/10 00:22:35;0.00;0.00;0.62;0.00;0.00;0.62;3.60;1.97;;;26.00;34.20;;;;;;2277038;60;20389;-67
2023/10/10 00:25:23;0.00;0.00;0.62;0.00;0.00;0.62;2.83;1.60;;;26.00;34.20;;;;;;2276855;60;20418;-67
2023/10/10 00:28:18;0.00;0.00;0.62;0.00;0.00;0.62;2.13;1.30;;;26.00;34.20;;;;;;2276475;60;20369;-67
2023/10/10 00:31:03;0.00;0.00;0.62;0.00;0.00;0.62;2.07;1.20;;;26.00;34.30;;;;;;2276914;60;20925;-66
2023/10/10 00:33:50;0.00;0.00;0.62;0.00;0.00;0.62;2.80;1.50;;;26.00;34.20;;;;;;2273678;60;20369;-71
2023/10/10 00:36:36;0.00;0.00;0.62;0.00;0.00;0.62;2.20;1.60;;;26.00;34.20;;;;;;2277011;60;20358;-67
2023/10/10 00:39:28;0.00;0.00;0.62;0.00;0.00;0.62;2.17;1.30;;;26.00;34.20;;;;;;2276610;60;20774;-67
2023/10/10 00:42:19;0.00;0.00;0.62;0.00;0.00;0.62;1.90;1.33;;;26.00;34.20;;;;;;2273662;60;20385;-66
2023/10/10 00:45:09;0.00;0.00;0.62;0.00;0.00;0.62;2.20;1.10;;;26.00;34.20;;;;;;2273860;60;20357;-67
2023/10/10 00:47:55;0.00;0.00;0.62;0.00;0.00;0.62;2.70;1.20;;;26.00;34.20;;;;;;2276777;60;20388;-67
2023/10/10 00:50:43;0.00;0.00;0.62;0.00;0.00;0.62;2.10;1.40;;;26.00;34.10;;;;;;2276887;60;20420;-66
2023/10/10 00:53:28;0.00;0.00;0.62;0.00;0.00;0.62;2.53;1.37;;;26.00;34.10;;;;;;2276723;60;20365;-66
2023/10/10 00:56:14;0.00;0.00;0.62;0.00;0.00;0.62;3.20;1.53;;;26.00;34.20;;;;;;2276749;60;20373;-67
2023/10/10 00:58:58;0.00;0.00;0.62;0.00;0.00;0.62;2.60;1.63;;;26.00;34.20;;;;;;2273366;60;20955;-66
2023/10/10 01:01:45;0.00;0.00;0.62;0.00;0.00;0.62;1.90;1.20;;;26.00;34.20;;;;;;2273814;60;20431;-67
2023/10/10 01:04:48;0.00;0.00;0.62;0.00;0.00;0.62;1.90;1.10;;;26.00;34.10;;;;;;2276838;60;20354;-67
2023/10/10 01:07:34;0.00;0.00;0.62;0.00;0.00;0.62;2.00;1.40;;;26.00;34.20;;;;;;2276631;60;20439;-66
2023/10/10 01:10:19;0.00;0.00;0.62;0.00;0.00;0.62;2.03;1.23;;;26.00;34.10;;;;;;2276783;60;20396;-66
2023/10/10 01:13:09;0.00;0.00;0.62;0.00;0.00;0.62;2.43;1.77;;;26.00;34.10;;;;;;2276443;60;20454;-67
2023/10/10 01:15:56;0.00;0.00;0.62;0.00;0.00;0.62;2.43;1.33;;;26.00;34.10;;;;;;2276822;60;20362;-67
2023/10/10 01:18:51;0.00;0.00;0.62;0.00;0.00;0.62;3.70;1.33;;;26.00;34.10;;;;;;2276242;60;20374;-67
2023/10/10 01:21:43;0.00;0.00;0.62;0.00;0.00;0.62;1.70;0.93;;;26.00;34.10;;;;;;2271310;60;20381;-70
2023/10/10 01:24:31;0.00;0.00;0.62;0.00;0.00;0.62;2.50;1.30;;;26.00;34.10;;;;;;2273610;60;20392;-65
2023/10/10 01:27:21;0.00;0.00;0.62;0.00;0.00;0.62;1.50;1.03;;;26.00;34.10;;;;;;2276593;60;20940;-65
2023/10/10 01:30:18;0.00;0.00;0.62;0.00;0.00;0.62;2.10;1.17;;;26.00;34.10;;;;;;2276315;60;20364;-67
2023/10/10 01:33:02;0.00;0.00;0.62;0.00;0.00;0.62;2.97;1.40;;;26.00;34.10;;;;;;2276697;60;20389;-66
2023/10/10 01:35:49;0.00;0.00;0.62;0.00;0.00;0.62;1.80;1.17;;;26.00;34.10;;;;;;2273631;60;20364;-67
2023/10/10 01:39:07;0.00;0.00;0.62;0.00;0.00;0.62;1.63;1.00;;;26.00;34.10;;;;;;2273018;60;20372;-67
2023/10/10 01:41:51;0.00;0.00;0.62;0.00;0.00;0.62;2.63;1.60;;;26.00;34.10;;;;;;2273535;60;20385;-66
2023/10/10 01:44:37;0.00;0.00;0.62;0.00;0.00;0.62;1.73;1.17;;;26.00;34.10;;;;;;2272808;60;20366;-67
2023/10/10 01:47:34;0.00;0.00;0.62;0.00;0.00;0.62;1.70;1.10;;;26.00;34.10;;;;;;2272435;60;20444;-66
2023/10/10 01:50:22;0.00;0.00;0.62;0.00;0.00;0.62;1.70;1.10;;;26.00;34.00;;;;;;2272454;60;20366;-66
2023/10/10 01:53:09;0.00;0.00;0.62;0.00;0.00;0.62;1.80;1.17;;;26.00;34.00;;;;;;2272518;60;20459;-68
2023/10/10 01:55:56;0.00;0.00;0.62;0.00;0.00;0.62;2.00;1.00;;;26.00;34.00;;;;;;2272406;60;20382;-66
2023/10/10 01:58:41;0.00;0.00;0.62;0.00;0.00;0.62;2.10;1.00;;;26.00;34.00;;;;;;2272349;60;20366;-67
2023/10/10 02:01:27;0.00;0.00;0.62;0.00;0.00;0.62;1.93;1.10;;;26.00;34.10;;;;;;2272454;60;20452;-66
2023/10/10 02:04:12;0.00;0.00;0.62;0.00;0.00;0.62;2.23;1.10;;;26.00;34.00;;;;;;2269407;61;20358;-68
2023/10/10 02:06:57;0.00;0.00;0.62;0.00;0.00;0.62;2.03;1.10;;;26.00;34.00;;;;;;2272591;60;20445;-67
2023/10/10 02:09:43;0.00;0.00;0.62;0.00;0.00;0.62;2.17;1.10;;;26.00;34.00;;;;;;2272316;61;20909;-66
2023/10/10 02:12:33;0.00;0.00;0.62;0.00;0.00;0.62;2.07;1.10;;;26.00;34.00;;;;;;2272532;60;20695;-67
2023/10/10 02:15:18;0.00;0.00;0.62;0.00;0.00;0.62;2.43;1.10;;;26.00;34.00;;;;;;2269315;61;20370;-67
2023/10/10 02:18:05;0.00;0.00;0.62;0.00;0.00;0.62;1.63;0.90;;;26.00;34.00;;;;;;2272022;60;20387;-68
2023/10/10 02:20:51;0.00;0.00;0.62;0.00;0.00;0.62;2.37;1.33;;;26.00;34.00;;;;;;2272532;60;20366;-65
2023/10/10 02:23:36;0.00;0.00;0.62;0.00;0.00;0.62;1.70;1.07;;;26.00;34.80;;;;;;2272508;60;20362;-65
2023/10/10 02:26:23;0.00;0.00;0.62;0.00;0.00;0.62;2.80;1.40;;;26.00;34.00;;;;;;2272569;60;20611;-67
2023/10/10 02:29:33;0.00;0.00;0.62;0.00;0.00;0.62;4.43;1.20;;;26.00;34.00;;;;;;2268711;60;20451;-67
2023/10/10 02:32:19;0.00;0.00;0.62;0.00;0.00;0.62;3.40;1.00;;;26.00;34.00;;;;;;2272457;60;20775;-66
2023/10/10 02:35:26;0.00;0.00;0.62;0.00;0.00;0.62;1.77;1.00;;;26.00;34.00;;;;;;2272412;61;20402;-67
2023/10/10 02:38:12;0.00;0.00;0.62;0.00;0.00;0.62;1.90;1.00;;;26.00;34.00;;;;;;2268914;61;20365;-66
2023/10/10 02:44:09;0.00;0.00;0.62;0.00;0.00;0.62;1.80;1.10;;;26.00;34.00;;;;;;2269381;60;20389;-66
2023/10/10 02:46:55;0.00;0.00;0.62;0.00;0.00;0.62;4.53;1.40;;;26.00;34.00;;;;;;2269179;61;20422;-66
2023/10/10 02:49:42;0.00;0.00;0.62;0.00;0.00;0.62;1.63;1.10;;;26.00;34.00;;;;;;2271246;60;20439;-65
2023/10/10 02:52:28;0.00;0.00;0.62;0.00;0.00;0.62;3.00;1.20;;;26.00;34.00;;;;;;2273307;60;20469;-65
2023/10/10 02:55:16;0.00;0.00;0.62;0.00;0.00;0.62;1.80;1.10;;;26.00;34.00;;;;;;2276553;60;20808;-66
2023/10/10 02:58:01;0.00;0.00;0.62;0.00;0.00;0.62;2.17;1.10;;;26.00;34.00;;;;;;2272609;60;20809;-66
2023/10/10 03:00:47;0.00;0.00;0.62;0.00;0.00;0.62;3.37;1.43;;;26.00;34.00;;;;;;2276491;60;20882;-67
2023/10/10 03:03:39;0.00;0.00;0.62;0.00;0.00;0.62;2.03;1.30;;;26.00;33.90;;;;;;2276197;60;20353;-67
2023/10/10 03:06:28;0.00;0.00;0.62;0.00;0.00;0.62;1.60;1.00;;;26.00;34.00;;;;;;2273003;60;20381;-67
2023/10/10 03:09:38;0.00;0.00;0.62;0.00;0.00;0.62;2.17;1.37;;;26.00;34.00;;;;;;2272658;60;20411;-67
2023/10/10 03:12:19;0.00;0.00;0.62;0.00;0.00;0.62;2.13;1.10;;;26.00;34.00;;;;;;2273019;60;20385;-67
2023/10/10 03:21:12;0.00;0.00;0.62;0.00;0.00;0.62;2.00;1.10;;;26.00;34.00;;;;;;2276163;60;20814;-67
2023/10/10 03:24:07;0.00;0.00;0.62;0.00;0.00;0.62;1.70;1.10;;;26.00;34.00;;;;;;2273147;60;20814;-66
2023/10/10 03:26:59;0.00;0.00;0.62;0.00;0.00;0.62;2.47;1.10;;;26.00;34.00;;;;;;2276476;60;20389;-67
2023/10/10 03:29:47;0.00;0.00;0.62;0.00;0.00;0.62;1.83;1.20;;;26.00;33.90;;;;;;2269849;60;20403;-66
2023/10/10 03:32:59;0.00;0.00;0.62;0.00;0.00;0.62;1.83;1.00;;;26.00;34.00;;;;;;2276550;60;20397;-67
2023/10/10 03:35:59;0.00;0.00;0.62;0.00;0.00;0.62;2.47;1.40;;;26.00;34.00;;;;;;2274050;60;20356;-67
2023/10/10 05:25:37;0.00;0.00;0.62;0.00;0.00;0.62;3.33;2.40;;;25.90;34.00;;;;;;2276970;60;20449;-66
2023/10/10 05:28:29;0.00;0.00;0.62;0.00;0.00;0.62;3.80;2.80;;;25.90;34.00;;;;;;2276298;60;20413;-66
2023/10/10 05:31:21;0.00;0.00;0.62;0.00;0.00;0.62;3.00;2.43;;;25.90;34.00;;;;;;2276971;60;20909;-67
2023/10/10 05:34:07;0.00;0.00;0.62;0.00;0.00;0.62;2.93;2.17;;;25.90;34.00;;;;;;2276722;60;20403;-67
2023/10/10 05:36:52;0.00;0.00;0.62;0.00;0.00;0.62;3.37;2.80;;;25.90;34.60;;;;;;2276774;60;20763;-67
2023/10/10 05:39:37;0.00;0.00;0.62;0.00;0.00;0.62;2.73;2.17;;;25.90;34.00;;;;;;2276248;60;20788;-67
2023/10/10 05:42:25;0.00;0.00;0.62;0.00;0.00;0.62;3.10;2.30;;;25.90;34.00;;;;;;2276798;60;20469;-66
2023/10/10 05:45:13;0.00;0.00;0.62;0.00;0.00;0.62;2.50;1.73;;;25.90;33.90;;;;;;2276729;60;20419;-65
2023/10/10 05:47:59;0.00;0.00;0.62;0.00;0.00;0.62;2.93;1.90;;;25.90;34.00;;;;;;2276283;60;20426;-68
2023/10/10 05:50:44;0.00;0.00;0.62;0.00;0.00;0.62;2.90;2.30;;;25.90;34.00;;;;;;2276851;60;20873;-66
2023/10/10 05:53:33;0.00;0.00;0.62;0.00;0.00;0.62;2.90;2.30;;;25.90;33.90;;;;;;2276471;60;20969;-64
2023/10/10 05:56:18;0.00;0.00;0.62;0.00;0.00;0.62;3.20;2.00;;;25.90;33.90;;;;;;2276804;60;20411;-68
2023/10/10 05:59:03;0.00;0.00;0.62;0.00;0.00;0.62;2.70;1.90;;;25.90;33.90;;;;;;2276248;60;20458;-70
2023/10/10 06:01:50;0.00;0.00;0.62;0.00;0.00;0.62;3.70;2.03;;;25.90;34.00;;;;;;2276465;60;20381;-67
2023/10/10 06:04:35;0.00;0.00;0.62;0.00;0.00;0.62;3.47;2.20;;;25.90;34.00;;;;;;2276885;60;20440;-66
2023/10/10 06:07:20;0.00;0.00;0.62;0.00;0.00;0.62;3.90;2.57;;;25.90;34.00;;;;;;2276464;60;20393;-66
2023/10/10 06:10:06;0.00;0.00;0.62;0.00;0.00;0.62;3.47;1.87;;;25.90;34.00;;;;;;2276522;60;20354;-67
2023/10/10 06:12:52;0.00;0.00;0.62;0.00;0.00;0.62;2.97;2.10;;;25.90;34.00;;;;;;2276601;60;20417;-67
2023/10/10 06:15:36;0.00;0.00;0.62;0.00;0.00;0.62;3.50;2.43;;;25.90;34.00;;;;;;2276706;60;20365;-66
2023/10/10 06:18:23;0.00;0.00;0.62;0.00;0.00;0.62;3.37;2.60;;;25.90;34.00;;;;;;2276274;60;20357;-66
2023/10/10 06:21:08;0.00;0.00;0.62;0.00;0.00;0.62;4.30;3.10;;;25.90;34.00;;;;;;2276568;60;20978;-66
2023/10/10 06:23:53;0.00;0.00;0.62;0.00;0.00;0.62;4.20;3.33;;;25.90;34.00;;;;;;2276466;60;20399;-66
2023/10/10 06:26:45;0.00;0.00;0.62;0.00;0.00;0.62;4.73;3.37;;;25.90;34.00;;;;;;2276565;60;20377;-66
2023/10/10 06:29:34;0.00;0.00;0.62;0.00;0.00;0.62;4.67;2.90;;;25.90;34.00;;;;;;2276184;60;20423;-68
2023/10/10 06:32:20;0.00;0.00;0.62;0.00;0.00;0.62;5.03;2.97;;;25.90;34.00;;;;;;2276451;60;20557;-67
2023/10/10 06:35:27;0.00;0.00;0.62;0.00;0.00;0.62;2.67;2.37;;;25.90;34.00;;;;;;2276412;60;20415;-67
2023/10/10 06:38:12;0.00;0.00;0.62;0.00;0.00;0.62;4.40;2.80;;;25.90;34.10;;;;;;2276025;60;20860;-66
2023/10/10 06:40:59;0.00;0.00;0.62;0.00;0.00;0.62;3.37;2.70;;;25.90;34.10;;;;;;2276604;60;20495;-66
2023/10/10 06:43:46;0.00;0.00;0.62;0.00;0.00;0.62;3.73;2.73;;;25.90;34.10;;;;;;2276535;60;20874;-67
2023/10/10 06:46:37;0.00;0.00;0.62;0.00;0.00;0.62;3.20;2.37;;;25.90;34.10;;;;;;2276565;60;20473;-66
2023/10/10 06:49:22;0.00;0.00;0.62;0.00;0.00;0.62;4.00;2.83;;;25.90;34.10;;;;;;2276093;60;20362;-66
2023/10/10 06:52:09;0.00;0.00;0.62;0.00;0.00;0.62;3.57;2.17;;;25.90;34.10;;;;;;2273294;60;20815;-65
2023/10/10 06:54:53;0.00;0.00;0.62;0.00;0.00;0.62;4.00;2.87;;;25.90;34.10;;;;;;2276762;60;20402;-66
2023/10/10 06:57:38;0.00;0.00;0.62;0.00;0.00;0.62;3.43;2.53;;;25.90;34.10;;;;;;2276408;60;20357;-66
2023/10/10 07:00:32;0.00;0.00;0.62;0.00;0.00;0.62;4.13;2.77;;;25.90;34.10;;;;;;2276268;60;20885;-67
2023/10/10 07:03:19;0.00;0.00;0.62;0.00;0.00;0.62;2.67;2.13;;;25.90;34.10;;;;;;2276562;60;20863;-65
2023/10/10 07:06:03;0.00;0.00;0.62;0.00;0.00;0.62;3.37;2.13;;;25.90;34.10;;;;;;2276447;60;20426;-67
2023/10/10 07:09:14;0.00;0.00;0.62;0.00;0.00;0.62;3.43;2.30;;;25.90;34.10;;;;;;2276892;60;20357;-66
2023/10/10 07:11:54;0.00;0.00;0.62;0.00;0.00;0.62;3.23;2.20;;;25.80;34.10;;;;;;2277216;60;20468;-67
2023/10/10 07:14:43;0.00;0.00;0.62;0.00;0.00;0.62;3.27;2.17;;;25.80;34.10;;;;;;2273785;60;20431;-66
2023/10/10 07:17:28;0.00;0.00;0.62;0.00;0.00;0.62;3.40;2.30;;;25.90;34.10;;;;;;2277328;60;20365;-67
2023/10/10 07:22:59;0.00;0.00;0.62;0.00;0.00;0.62;3.27;2.27;;;25.80;34.10;;;;;;2277010;60;20842;-67
2023/10/10 07:25:58;0.00;0.00;0.62;0.00;0.00;0.62;4.80;2.27;;;25.80;34.10;;;;;;2277312;60;20457;-67
2023/10/10 07:28:48;0.00;0.00;0.62;0.00;0.00;0.62;2.77;1.97;;;25.90;34.20;;;;;;2273568;60;20361;-66
2023/10/10 07:31:34;0.00;0.00;0.62;0.00;0.00;0.62;2.80;2.27;;;25.90;34.20;;;;;;2277002;60;20391;-67
2023/10/10 07:34:19;0.00;0.00;0.62;0.00;0.00;0.62;2.37;2.07;;;25.80;34.10;;;;;;2277274;60;20947;-66
2023/10/10 07:37:10;0.00;0.00;0.62;0.00;0.00;0.62;5.30;1.97;;;25.80;34.10;;;;;;2273846;60;20640;-67
2023/10/10 07:39:55;0.00;0.00;0.62;0.00;0.00;0.62;2.80;2.03;;;25.90;34.30;;;;;;2273717;60;20357;-66
2023/10/10 07:42:41;0.00;0.00;0.62;0.00;0.00;0.62;2.47;1.90;;;25.90;34.30;;;;;;2276494;60;20788;-67
2023/10/10 07:45:45;0.00;0.00;0.62;0.00;0.00;0.62;2.83;1.73;;;25.90;34.20;;;;;;2277081;60;20373;-67
2023/10/10 07:48:39;0.00;0.00;0.62;0.00;0.00;0.62;2.60;1.80;;;25.90;34.20;;;;;;2276789;60;20376;-67
2023/10/10 07:51:29;0.00;0.00;0.62;0.00;0.00;0.62;3.70;2.80;;;25.90;34.30;;;;;;2277010;60;20381;-66
2023/10/10 07:54:28;0.00;0.00;0.62;0.00;0.00;0.62;3.00;2.00;;;25.90;34.20;;;;;;2277145;60;20767;-66
2023/10/10 07:57:22;0.00;0.00;0.62;0.00;0.00;0.62;3.20;1.73;;;25.90;34.20;;;;;;2276901;60;20388;-67
2023/10/10 08:00:17;0.00;0.00;0.62;0.00;0.00;0.62;2.77;1.90;;;25.90;34.20;;;;;;2273096;60;20458;-68
2023/10/10 08:03:01;0.00;0.00;0.62;0.00;0.00;0.62;2.97;1.90;;;25.90;34.20;;;;;;2277150;60;20423;-67
2023/10/10 08:05:48;0.00;0.00;0.62;0.00;0.00;0.62;2.03;1.67;;;25.90;34.20;;;;;;2276885;60;20873;-66
2023/10/10 08:08:35;0.00;0.00;0.62;0.00;0.00;0.62;3.67;2.27;;;25.90;34.30;;;;;;2276708;60;20762;-66
2023/10/10 08:11:35;0.00;0.00;0.62;0.00;0.00;0.62;2.37;1.67;;;25.90;34.30;;;;;;2276976;60;20380;-66
2023/10/10 08:14:24;0.00;0.00;0.62;0.00;0.00;0.62;3.10;1.63;;;25.90;34.20;;;;;;2273751;60;20373;-67
2023/10/10 08:17:19;0.00;0.00;0.62;0.00;0.00;0.62;2.73;1.80;;;25.90;34.20;;;;;;2273715;60;20467;-66
2023/10/10 08:20:31;0.00;0.00;0.62;0.00;0.00;0.62;3.17;2.10;;;25.90;34.30;;;;;;2273447;60;20362;-72
2023/10/10 08:23:11;0.00;0.00;0.62;0.00;0.00;0.62;2.83;1.67;;;25.90;34.30;;;;;;2277062;60;20361;-66
2023/10/10 08:25:57;0.00;0.00;0.62;0.00;0.00;0.62;2.90;2.03;;;25.90;34.30;;;;;;2277014;60;20484;-70
2023/10/10 08:28:41;0.00;0.00;0.62;0.00;0.00;0.62;2.77;1.87;;;26.00;34.30;;;;;;2276479;60;20411;-66
2023/10/10 08:31:26;0.00;0.00;0.62;0.00;0.00;0.62;4.07;1.87;;;26.00;34.30;;;;;;2276929;60;20377;-65
2023/10/10 08:34:13;0.00;0.00;0.62;0.00;0.00;0.62;2.57;2.00;;;26.00;34.30;;;;;;2276893;60;20357;-67
2023/10/10 08:37:03;0.00;0.00;0.62;0.00;0.00;0.62;2.80;2.03;;;26.00;34.30;;;;;;2277001;60;20495;-67
2023/10/10 08:39:49;0.00;0.00;0.62;0.00;0.00;0.62;2.73;1.90;;;26.00;34.30;;;;;;2276615;60;20358;-67
2023/10/10 08:42:36;0.00;0.00;0.62;0.00;0.00;0.62;2.37;1.90;;;26.00;34.30;;;;;;2276876;60;20516;-66
2023/10/10 08:45:24;0.00;0.00;0.62;0.00;0.00;0.62;3.23;2.07;;;26.00;34.30;;;;;;2277042;60;20352;-67
2023/10/10 08:48:12;0.00;0.00;0.62;0.00;0.00;0.62;3.10;1.90;;;26.00;34.30;;;;;;2276370;60;20459;-67
2023/10/10 08:51:03;0.00;0.00;0.62;0.00;0.00;0.62;4.13;2.10;;;26.00;34.30;;;;;;2276801;60;20438;-66
2023/10/10 08:53:50;0.00;0.00;0.62;0.00;0.00;0.62;2.30;2.03;;;26.00;34.30;;;;;;2277089;60;20391;-65
2023/10/10 08:56:37;0.00;0.00;0.62;0.00;0.00;0.62;2.80;2.00;;;26.00;34.30;;;;;;2273595;60;20361;-66
2023/10/10 08:59:21;0.00;0.00;0.62;0.00;0.00;0.62;3.70;2.07;;;26.00;34.30;;;;;;2276379;60;20391;-69
2023/10/10 09:02:12;0.00;0.00;0.62;0.00;0.00;0.62;2.70;2.20;;;26.00;34.30;;;;;;2276820;60;20459;-66
2023/10/10 09:04:57;0.00;0.00;0.62;0.00;0.00;0.62;3.27;1.80;;;26.00;34.30;;;;;;2276649;60;20357;-66
2023/10/10 09:07:43;0.00;0.00;0.62;0.00;0.00;0.62;2.97;2.10;;;26.00;34.30;;;;;;2276465;60;20794;-67
2023/10/10 09:10:29;0.00;0.00;0.62;0.00;0.00;0.62;3.90;2.30;;;26.00;34.30;;;;;;2276721;60;20365;-67
2023/10/10 09:13:13;0.00;0.00;0.62;0.00;0.00;0.62;3.30;2.17;;;26.10;34.40;;;;;;2276524;60;20402;-67
2023/10/10 09:15:58;0.00;0.00;0.62;0.00;0.00;0.62;2.57;2.07;;;26.00;34.30;;;;;;2273460;60;20378;-66
2023/10/10 09:18:43;0.00;0.00;0.62;0.00;0.00;0.62;2.73;1.50;;;26.00;34.30;;;;;;2272259;60;20412;-67
2023/10/10 09:21:28;0.00;0.00;0.62;0.00;0.00;0.62;3.17;2.27;;;26.00;34.40;;;;;;2272488;60;20465;-67
2023/10/10 09:24:28;0.00;0.00;0.62;0.00;0.00;0.62;2.33;1.53;;;26.00;34.30;;;;;;2269508;61;20421;-66
2023/10/10 09:27:28;0.00;0.00;0.62;0.00;0.00;0.62;2.37;1.70;;;26.10;34.40;;;;;;2272372;60;20452;-65
2023/10/10 09:30:15;0.00;0.00;0.62;0.00;0.00;0.62;4.03;2.57;;;26.10;34.50;;;;;;2271889;60;20433;-66
2023/10/10 09:33:13;0.00;0.00;0.62;0.00;0.00;0.62;2.70;2.10;;;26.10;34.40;;;;;;2272419;60;20390;-66
2023/10/10 09:36:09;0.00;0.00;0.62;0.00;0.00;0.62;3.87;2.67;;;26.10;34.40;;;;;;2272176;61;20552;-65
2023/10/10 09:39:08;0.00;0.00;0.62;0.00;0.00;0.62;2.10;1.67;;;26.10;34.40;;;;;;2272283;61;20629;-67
2023/10/10 09:45:16;0.00;0.00;0.62;0.00;0.00;0.62;3.10;2.43;;;26.10;34.50;;;;;;2272788;61;20367;-67
2023/10/10 09:48:06;0.00;0.00;0.62;0.00;0.00;0.62;2.90;2.17;;;26.10;34.50;;;;;;2272220;60;20457;-66
2023/10/10 09:51:16;0.00;0.00;0.62;0.00;0.00;0.62;2.93;2.17;;;26.10;34.50;;;;;;2272408;61;20358;-68
2023/10/10 09:54:15;0.00;0.00;0.62;0.00;0.00;0.62;3.40;2.60;;;26.10;34.50;;;;;;2272617;61;20890;-67
2023/10/10 09:57:08;0.00;0.00;0.62;0.00;0.00;0.62;2.60;2.10;;;26.10;34.60;;;;;;2272636;61;20419;-67
2023/10/10 09:59:56;0.00;0.00;0.62;0.00;0.00;0.62;3.37;2.40;;;26.10;34.60;;;;;;2272236;61;20424;-66
2023/10/10 10:02:43;0.00;0.00;0.62;0.00;0.00;0.62;2.87;1.87;;;26.20;34.70;;;;;;2272662;61;20917;-68
2023/10/10 10:05:29;0.00;0.00;0.62;0.00;0.00;0.62;3.20;2.43;;;26.10;34.60;;;;;;2272500;60;20448;-66
2023/10/10 10:08:22;0.00;0.00;0.62;0.00;0.00;0.62;2.70;2.30;;;26.20;34.70;;;;;;2272112;60;20938;-67
2023/10/10 10:11:13;0.00;0.00;0.62;0.00;0.00;0.62;3.00;2.00;;;26.20;34.70;;;;;;2272454;60;20382;-66
2023/10/10 10:14:12;0.00;0.00;0.62;0.00;0.00;0.62;2.73;2.17;;;26.20;34.70;;;;;;2272664;60;20405;-65
2023/10/10 10:17:12;0.00;0.00;0.62;0.00;0.00;0.62;2.83;1.97;;;26.20;34.70;;;;;;2272714;61;20367;-66
2023/10/10 10:20:20;0.00;0.00;0.62;0.00;0.00;0.62;2.93;2.40;;;26.20;34.70;;;;;;2268968;60;20343;-66
2023/10/10 10:23:06;0.00;0.00;0.62;0.00;0.00;0.62;2.80;2.50;;;26.20;34.70;;;;;;2269407;61;20991;-66
2023/10/10 10:25:53;0.00;0.00;0.62;0.00;0.00;0.62;2.70;2.10;;;26.20;34.80;;;;;;2272761;61;20428;-66
2023/10/10 10:28:41;0.00;0.00;0.62;0.00;0.00;0.62;3.23;2.17;;;26.20;34.80;;;;;;2272341;60;20661;-67
2023/10/10 10:31:37;0.00;0.00;0.62;0.00;0.00;0.62;3.17;2.70;;;26.20;34.80;;;;;;2272773;60;20378;-67
2023/10/10 10:34:31;0.00;0.00;0.62;0.00;0.00;0.62;3.50;2.50;;;26.20;34.80;;;;;;2272324;61;20377;-66
2023/10/10 10:37:21;0.00;0.00;0.62;0.00;0.00;0.62;2.77;2.17;;;26.20;34.80;;;;;;2272805;61;20419;-67
2023/10/10 10:40:23;0.00;0.00;0.62;0.00;0.00;0.62;2.70;2.30;;;26.30;34.90;;;;;;2272358;61;20393;-67
2023/10/10 10:43:14;0.00;0.00;0.62;0.00;0.00;0.62;2.53;1.97;;;26.30;35.00;;;;;;2272716;61;20431;-66
2023/10/10 10:46:15;0.00;0.00;0.62;0.00;0.00;0.62;3.50;2.50;;;26.30;35.60;;;;;;2272639;61;20497;-67
2023/10/10 10:49:07;0.00;0.00;0.62;0.00;0.00;0.62;3.70;2.30;;;26.30;35.00;;;;;;2272191;60;20887;-66
2023/10/10 10:52:14;0.00;0.00;0.62;0.00;0.00;0.62;3.97;2.47;;;26.30;35.00;;;;;;2272694;60;20410;-67
2023/10/10 10:55:18;0.00;0.00;0.62;0.00;0.00;0.62;3.13;2.60;;;26.30;35.00;;;;;;2272803;61;20925;-66
2023/10/10 11:01:08;0.00;0.00;0.62;0.00;0.00;0.62;3.40;2.53;;;26.40;35.00;;;;;;2272617;60;20404;-66
2023/10/10 11:03:54;0.00;0.00;0.62;0.00;0.00;0.62;3.40;2.80;;;26.40;35.10;;;;;;2272557;60;20408;-67
2023/10/10 11:06:50;0.00;0.00;0.62;0.00;0.00;0.62;3.90;2.37;;;26.40;35.10;;;;;;2272505;61;20924;-66
2023/10/10 11:09:37;0.00;0.00;0.62;0.00;0.00;0.62;3.20;2.60;;;26.50;35.20;;;;;;2272254;61;20770;-66
2023/10/10 11:12:31;0.00;0.00;0.62;0.00;0.00;0.62;2.90;2.70;;;26.50;35.20;;;;;;2272418;60;20941;-65
2023/10/10 11:15:16;0.00;0.00;0.62;0.00;0.00;0.62;2.67;2.47;;;26.50;35.20;;;;;;2272617;60;20358;-66
2023/10/10 11:18:07;0.00;0.00;0.62;0.00;0.00;0.62;2.80;2.53;;;26.50;35.20;;;;;;2272039;61;20362;-66
2023/10/10 11:20:56;0.00;0.00;0.62;0.00;0.00;0.62;2.67;2.33;;;26.50;35.20;;;;;;2272673;60;20412;-66
2023/10/10 11:23:42;0.00;0.00;0.62;0.00;0.00;0.62;3.20;2.80;;;26.50;35.20;;;;;;2269576;61;20366;-67
2023/10/10 11:26:34;0.00;0.00;0.62;0.00;0.00;0.62;2.63;2.40;;;26.60;35.30;;;;;;2269082;61;20420;-66
2023/10/10 11:29:29;0.00;0.00;0.62;0.00;0.00;0.62;3.10;2.37;;;26.60;35.30;;;;;;2272268;61;20369;-67
2023/10/10 11:32:15;0.00;0.00;0.62;0.00;0.00;0.62;3.20;2.90;;;26.60;35.90;;;;;;2272523;61;20386;-66
2023/10/10 11:38:06;0.00;0.00;0.62;0.00;0.00;0.62;3.00;2.70;;;26.60;35.10;;;;;;2272112;61;20404;-66
2023/10/10 11:40:52;0.00;0.00;0.62;0.00;0.00;0.62;3.30;3.00;;;26.60;35.10;;;;;;2272448;61;20378;-66
2023/10/10 11:43:38;0.00;0.00;0.62;0.00;0.00;0.62;2.77;2.57;;;26.70;35.10;;;;;;2272565;61;20394;-67
2023/10/10 11:46:23;0.00;0.00;0.62;0.00;0.00;0.62;2.93;2.60;;;26.70;35.10;;;;;;2272415;61;20945;-67
2023/10/10 11:49:15;0.00;0.00;0.62;0.00;0.00;0.62;3.20;2.67;;;26.70;35.10;;;;;;2271838;61;20448;-67
2023/10/10 11:51:59;0.00;0.00;0.62;0.00;0.00;0.62;2.90;2.60;;;26.70;35.20;;;;;;2269139;60;20462;-66
2023/10/10 11:54:44;0.00;0.00;0.62;0.00;0.00;0.62;3.23;2.93;;;26.70;35.10;;;;;;2272875;60;20385;-67
2023/10/10 11:57:33;0.00;0.00;0.62;0.00;0.00;0.62;6.30;2.70;;;26.70;35.10;;;;;;2273199;61;20450;-67
2023/10/10 12:00:22;0.00;0.00;0.62;0.00;0.00;0.62;3.33;2.40;;;26.80;35.20;;;;;;2272847;61;20374;-67
2023/10/10 12:03:07;0.00;0.00;0.62;0.00;0.00;0.62;3.10;2.80;;;26.70;35.10;;;;;;2272852;60;20421;-67
2023/10/10 12:05:51;0.00;0.00;0.62;0.00;0.00;0.62;3.47;2.87;;;26.80;35.10;;;;;;2272955;61;20389;-69
2023/10/10 12:08:37;0.00;0.00;0.62;0.00;0.00;0.62;3.27;2.63;;;26.80;35.80;;;;;;2272700;60;20968;-68
2023/10/10 12:11:22;0.00;0.00;0.62;0.00;0.00;0.62;3.30;2.93;;;26.80;35.10;;;;;;2272862;60;20976;-68
2023/10/10 12:14:11;0.00;0.00;0.62;0.00;0.00;0.62;3.60;3.27;;;26.80;35.10;;;;;;2273126;61;20882;-67
2023/10/10 12:16:58;0.00;0.00;0.62;0.00;0.00;0.62;3.00;2.60;;;26.80;35.10;;;;;;2272945;60;20358;-67
2023/10/10 12:19:43;0.00;0.00;0.62;0.00;0.00;0.62;3.03;2.50;;;26.80;35.10;;;;;;2272632;61;20361;-69
2023/10/10 12:22:28;0.00;0.00;0.62;0.00;0.00;0.62;4.37;3.27;;;26.90;35.20;;;;;;2272945;61;20386;-66
2023/10/10 12:25:15;0.00;0.00;0.62;0.00;0.00;0.62;3.33;3.00;;;26.80;35.10;;;;;;2273061;61;20365;-67
2023/10/10 12:28:00;0.00;0.00;0.62;0.00;0.00;0.62;4.13;3.20;;;26.90;35.20;;;;;;2272504;61;20377;-67
2023/10/10 12:30:46;0.00;0.00;0.62;0.00;0.00;0.62;3.27;2.97;;;26.90;35.20;;;;;;2273352;61;20416;-67
2023/10/10 12:33:31;0.00;0.00;0.62;0.00;0.00;0.62;3.77;3.10;;;26.90;35.20;;;;;;2272696;60;20373;-66
2023/10/10 12:36:16;0.00;0.00;0.62;0.00;0.00;0.62;4.13;3.30;;;26.90;35.20;;;;;;2273226;60;20970;-66
2023/10/10 12:39:04;0.00;0.00;0.62;0.00;0.00;0.62;3.97;3.17;;;26.90;35.20;;;;;;2272451;61;20413;-65
2023/10/10 12:41:49;0.00;0.00;0.62;0.00;0.00;0.62;3.90;3.00;;;27.00;35.20;;;;;;2272617;60;20444;-64
2023/10/10 12:44:33;0.00;0.00;0.62;0.00;0.00;0.62;4.77;3.67;;;27.00;35.30;;;;;;2273040;60;20354;-62
2023/10/10 12:47:21;0.00;0.00;0.62;0.00;0.00;0.62;4.13;3.00;;;27.00;35.30;;;;;;2272920;61;20382;-63
2023/10/10 12:50:13;0.00;0.00;0.62;0.00;0.00;0.62;3.63;3.07;;;27.00;35.40;;;;;;2272669;61;20449;-64
2023/10/10 12:53:07;0.00;0.00;0.62;0.00;0.00;0.62;3.77;3.33;;;27.00;35.40;;;;;;2272867;61;20382;-66
2023/10/10 12:56:00;0.00;0.00;0.62;0.00;0.00;0.62;4.10;3.40;;;27.00;35.40;;;;;;2273056;61;20362;-64
2023/10/10 12:58:51;0.00;0.00;0.62;0.00;0.00;0.62;3.57;3.13;;;27.00;35.40;;;;;;2272676;60;20882;-65
2023/10/10 13:01:36;0.00;0.00;0.62;0.00;0.00;0.62;4.20;3.53;;;27.00;35.40;;;;;;2272159;60;20468;-65
2023/10/10 13:04:28;0.00;0.00;0.62;0.00;0.00;0.62;4.80;3.33;;;27.00;35.50;;;;;;2273162;60;20362;-65
2023/10/10 13:07:16;0.00;0.00;0.62;0.00;0.00;0.62;4.30;3.83;;;27.00;35.50;;;;;;2272951;60;20839;-62
2023/10/10 13:10:10;0.00;0.00;0.62;0.00;0.00;0.62;3.70;3.40;;;27.10;35.60;;;;;;2272555;60;20366;-65
2023/10/10 13:12:54;0.00;0.00;0.62;0.00;0.00;0.62;4.37;3.07;;;27.00;35.50;;;;;;2273166;60;21014;-63
2023/10/10 13:15:50;0.00;0.00;0.62;0.00;0.00;0.62;3.60;3.23;;;27.10;35.50;;;;;;2273391;60;20370;-56
2023/10/10 13:18:36;0.00;0.00;0.62;0.00;0.00;0.62;3.73;3.43;;;27.10;35.50;;;;;;2273017;60;20354;-63